Time;durP1;ratioP1;P1;durP2;ratioP2;P2;SDS_P1;SDS_P2;PMS_P1;PMS_P2;Temp;Humidity;BMP_temperature;BMP_pressure;BME280_temperature;BME280_humidity;BME280_pressure;Samples;Min_cycle;Max_cycle;Signal;HPM_P1;HPM_P2
2023/09/18 00:01:41;;;;;;;10.25;4.88;;;;;;;;;;5091429;28;20417;-70
2023/09/18 00:04:06;;;;;;;8.25;4.20;;;;;;;;;;5092121;28;20036;-70
2023/09/18 00:06:33;;;;;;;12.32;4.88;;;;;;;;;;5092175;28;20035;-70
2023/09/18 00:08:59;;;;;;;10.48;5.30;;;;;;;;;;5091718;28;20040;-71
2023/09/18 00:11:24;;;;;;;18.85;5.90;;;;;;;;;;5091872;28;20073;-71
2023/09/18 00:13:50;;;;;;;11.43;4.95;;;;;;;;;;5091966;28;20036;-71
2023/09/18 00:16:16;;;;;;;16.55;5.20;;;;;;;;;;5091740;28;20028;-71
2023/09/18 00:18:44;;;;;;;9.38;4.32;;;;;;;;;;5090478;28;20036;-70
2023/09/18 00:21:10;;;;;;;11.90;4.75;;;;;;;;;;5091549;28;20025;-70
2023/09/18 00:23:39;;;;;;;9.98;4.38;;;;;;;;;;5091163;28;20052;-70
2023/09/18 00:26:04;;;;;;;10.80;4.80;;;;;;;;;;5091840;28;20107;-70
2023/09/18 00:28:30;;;;;;;9.63;4.70;;;;;;;;;;5092385;28;20694;-70
2023/09/18 00:30:56;;;;;;;15.07;4.80;;;;;;;;;;5091146;28;20119;-70
2023/09/18 00:33:22;;;;;;;13.20;4.70;;;;;;;;;;5091367;28;20070;-70
2023/09/18 00:35:49;;;;;;;12.00;4.47;;;;;;;;;;5090776;28;20032;-70
2023/09/18 00:38:15;;;;;;;10.48;4.30;;;;;;;;;;5093120;28;20038;-70
2023/09/18 00:40:41;;;;;;;10.02;4.65;;;;;;;;;;5094417;28;20020;-71
2023/09/18 00:43:08;;;;;;;12.00;4.78;;;;;;;;;;5094277;28;20046;-71
2023/09/18 00:45:36;;;;;;;11.85;4.88;;;;;;;;;;5095885;28;20027;-71
2023/09/18 00:48:02;;;;;;;17.10;5.18;;;;;;;;;;5094232;28;20024;-71
2023/09/18 00:50:27;;;;;;;10.65;4.82;;;;;;;;;;5094084;28;20370;-71
2023/09/18 00:52:53;;;;;;;11.68;4.10;;;;;;;;;;5094066;28;20478;-71
2023/09/18 00:55:19;;;;;;;12.52;4.75;;;;;;;;;;5094039;28;20055;-70
2023/09/18 00:57:45;;;;;;;11.27;4.45;;;;;;;;;;5093906;28;20055;-71
2023/09/18 01:00:16;;;;;;;8.60;4.28;;;;;;;;;;5095420;28;20020;-70
2023/09/18 01:02:43;;;;;;;14.50;5.43;;;;;;;;;;5077955;28;20028;-71
2023/09/18 01:05:09;;;;;;;9.02;4.78;;;;;;;;;;5093529;28;20465;-71
2023/09/18 01:07:34;;;;;;;16.98;5.10;;;;;;;;;;5093652;28;20063;-71
2023/09/18 01:10:00;;;;;;;14.75;4.90;;;;;;;;;;5095651;28;20016;-70
2023/09/18 01:12:55;;;;;;;13.80;4.90;;;;;;;;;;5111958;28;20032;-71
2023/09/18 01:15:26;;;;;;;12.07;5.28;;;;;;;;;;5114064;28;20144;-71
2023/09/18 01:17:52;;;;;;;7.57;4.70;;;;;;;;;;5131124;27;20067;-71
2023/09/18 01:20:18;;;;;;;11.07;4.47;;;;;;;;;;5096796;28;20058;-71
2023/09/18 01:22:44;;;;;;;9.63;4.63;;;;;;;;;;5115180;28;20032;-71
2023/09/18 01:25:10;;;;;;;13.25;4.82;;;;;;;;;;5115158;28;20020;-70
2023/09/18 01:27:36;;;;;;;9.88;4.05;;;;;;;;;;5110319;28;20032;-71
2023/09/18 01:30:02;;;;;;;11.45;4.50;;;;;;;;;;5093171;28;20027;-71
2023/09/18 01:32:31;;;;;;;9.38;4.78;;;;;;;;;;5094682;28;20047;-70
2023/09/18 01:35:00;;;;;;;9.20;4.63;;;;;;;;;;5093368;28;20050;-70
2023/09/18 01:37:29;;;;;;;8.98;4.00;;;;;;;;;;5094435;28;20032;-70
2023/09/18 01:39:58;;;;;;;13.10;4.47;;;;;;;;;;5094845;28;20059;-70
2023/09/18 01:42:26;;;;;;;10.95;4.38;;;;;;;;;;5094367;28;20093;-71
2023/09/18 01:44:54;;;;;;;15.13;5.35;;;;;;;;;;5093038;28;20020;-70
2023/09/18 01:47:23;;;;;;;9.82;4.50;;;;;;;;;;5093026;28;20131;-71
2023/09/18 01:49:49;;;;;;;15.02;5.28;;;;;;;;;;5098617;28;20376;-71
2023/09/18 01:52:15;;;;;;;13.88;4.80;;;;;;;;;;5111347;28;20034;-71
2023/09/18 01:54:41;;;;;;;12.82;4.75;;;;;;;;;;5113212;28;20032;-71
2023/09/18 01:57:10;;;;;;;9.68;4.60;;;;;;;;;;5109952;28;20424;-71
2023/09/18 01:59:35;;;;;;;10.85;5.13;;;;;;;;;;5111807;28;20020;-71
2023/09/18 02:02:06;;;;;;;9.32;4.10;;;;;;;;;;5111238;28;20069;-70
2023/09/18 02:04:33;;;;;;;6.45;4.28;;;;;;;;;;5114289;28;20027;-71
2023/09/18 02:06:58;;;;;;;7.00;4.43;;;;;;;;;;5111577;27;20112;-71
2023/09/18 02:09:24;;;;;;;14.95;4.60;;;;;;;;;;5112887;28;20501;-71
2023/09/18 02:11:50;;;;;;;13.10;4.70;;;;;;;;;;5109657;28;20023;-70
2023/09/18 02:14:16;;;;;;;8.82;4.72;;;;;;;;;;5112846;28;20111;-71
2023/09/18 02:16:46;;;;;;;8.40;4.53;;;;;;;;;;5079753;28;20119;-71
2023/09/18 02:19:16;;;;;;;10.07;3.85;;;;;;;;;;5094971;28;20051;-71
2023/09/18 02:21:42;;;;;;;15.15;4.88;;;;;;;;;;5096492;28;20032;-71
2023/09/18 02:24:09;;;;;;;10.48;4.63;;;;;;;;;;5112798;28;20097;-71
2023/09/18 02:26:36;;;;;;;10.38;4.30;;;;;;;;;;5109368;28;20036;-70
2023/09/18 02:29:05;;;;;;;11.68;4.50;;;;;;;;;;5112600;28;20019;-70
2023/09/18 02:31:31;;;;;;;16.50;5.78;;;;;;;;;;5110404;28;20039;-71
2023/09/18 02:33:56;;;;;;;9.80;4.80;;;;;;;;;;5112253;28;20148;-71
2023/09/18 02:36:22;;;;;;;13.65;5.00;;;;;;;;;;5108149;28;20043;-71
2023/09/18 02:38:48;;;;;;;10.73;4.65;;;;;;;;;;5110542;28;20023;-71
2023/09/18 02:41:14;;;;;;;16.60;5.90;;;;;;;;;;5112256;28;20445;-71
2023/09/18 02:43:40;;;;;;;17.85;5.85;;;;;;;;;;5109294;28;20123;-71
2023/09/18 02:46:06;;;;;;;14.80;5.68;;;;;;;;;;5102785;28;20506;-71
2023/09/18 02:48:32;;;;;;;10.30;6.50;;;;;;;;;;5112247;28;20019;-71
2023/09/18 02:51:02;;;;;;;15.30;7.50;;;;;;;;;;5102955;28;20066;-71
2023/09/18 02:53:28;;;;;;;18.83;8.07;;;;;;;;;;5094279;28;20019;-71
2023/09/18 02:55:57;;;;;;;14.15;7.10;;;;;;;;;;5091049;28;20032;-71
2023/09/18 02:58:29;;;;;;;36.40;10.82;;;;;;;;;;5091691;28;20402;-71
2023/09/18 03:00:59;;;;;;;20.25;8.00;;;;;;;;;;5090264;28;20032;-71
2023/09/18 03:03:26;;;;;;;22.05;7.95;;;;;;;;;;5100761;28;20027;-71
2023/09/18 03:05:52;;;;;;;16.52;8.00;;;;;;;;;;5100109;28;20043;-71
2023/09/18 03:08:18;;;;;;;22.80;8.77;;;;;;;;;;5093889;28;20385;-72
2023/09/18 03:10:44;;;;;;;11.93;8.05;;;;;;;;;;5092944;28;20493;-71
2023/09/18 03:13:12;;;;;;;19.73;8.73;;;;;;;;;;5093268;28;20039;-71
2023/09/18 03:15:38;;;;;;;22.40;8.55;;;;;;;;;;5093400;28;20118;-71
2023/09/18 03:18:07;;;;;;;19.55;8.57;;;;;;;;;;5073887;28;20036;-71
2023/09/18 03:20:33;;;;;;;27.45;9.30;;;;;;;;;;5092616;28;20081;-72
2023/09/18 03:23:03;;;;;;;19.10;7.35;;;;;;;;;;5092678;28;20032;-71
2023/09/18 03:25:29;;;;;;;21.13;8.02;;;;;;;;;;5095059;28;20024;-71
2023/09/18 03:27:57;;;;;;;23.95;7.63;;;;;;;;;;5097062;28;20035;-71
2023/09/18 03:30:27;;;;;;;25.08;9.02;;;;;;;;;;5091690;28;20027;-71
2023/09/18 03:32:53;;;;;;;29.42;8.32;;;;;;;;;;5090370;28;20396;-71
2023/09/18 03:35:20;;;;;;;13.65;6.90;;;;;;;;;;5089080;28;20020;-70
2023/09/18 03:37:49;;;;;;;17.70;6.32;;;;;;;;;;5108998;27;20504;-70
2023/09/18 03:40:17;;;;;;;16.23;6.82;;;;;;;;;;5088358;28;20085;-70
2023/09/18 03:42:43;;;;;;;13.18;6.65;;;;;;;;;;5094124;28;20034;-70
2023/09/18 03:45:10;;;;;;;11.20;6.57;;;;;;;;;;5091457;28;21397;-72
2023/09/18 03:47:39;;;;;;;15.90;5.82;;;;;;;;;;5098187;28;20036;-71
2023/09/18 03:50:09;;;;;;;14.85;5.78;;;;;;;;;;5096005;28;20039;-71
2023/09/18 03:52:36;;;;;;;13.55;5.88;;;;;;;;;;5107086;28;20028;-71
2023/09/18 03:55:02;;;;;;;11.38;5.13;;;;;;;;;;5097356;28;20031;-71
2023/09/18 03:57:28;;;;;;;11.10;5.20;;;;;;;;;;5101227;28;20039;-71
2023/09/18 03:59:54;;;;;;;19.60;6.78;;;;;;;;;;5094778;28;20416;-71
2023/09/18 04:02:23;;;;;;;10.13;4.95;;;;;;;;;;5082961;28;20034;-72
2023/09/18 04:04:51;;;;;;;15.57;5.80;;;;;;;;;;5094422;28;20078;-71
2023/09/18 04:07:16;;;;;;;11.77;4.78;;;;;;;;;;5087594;28;20027;-72
2023/09/18 04:09:43;;;;;;;11.02;5.38;;;;;;;;;;5089949;28;20361;-71
2023/09/18 04:12:09;;;;;;;11.20;4.55;;;;;;;;;;5101712;28;20048;-71
2023/09/18 04:14:35;;;;;;;13.82;4.78;;;;;;;;;;5085972;28;20533;-70
2023/09/18 04:17:02;;;;;;;19.63;6.45;;;;;;;;;;5097255;28;20393;-71
2023/09/18 04:19:28;;;;;;;14.00;4.78;;;;;;;;;;5097035;28;20172;-71
2023/09/18 04:21:54;;;;;;;11.13;4.35;;;;;;;;;;5085553;28;20021;-71
2023/09/18 04:24:20;;;;;;;11.93;4.78;;;;;;;;;;5085829;28;20050;-70
2023/09/18 04:26:46;;;;;;;11.68;5.15;;;;;;;;;;5086057;28;20055;-71
2023/09/18 04:29:13;;;;;;;13.98;5.10;;;;;;;;;;5084834;28;20033;-71
2023/09/18 04:31:39;;;;;;;14.40;4.97;;;;;;;;;;5079019;28;20039;-71
2023/09/18 04:34:05;;;;;;;12.23;5.13;;;;;;;;;;5073416;28;20511;-71
2023/09/18 04:36:31;;;;;;;17.35;5.57;;;;;;;;;;5068547;28;20032;-71
2023/09/18 04:38:57;;;;;;;17.23;5.45;;;;;;;;;;5088030;28;20032;-70
2023/09/18 04:41:23;;;;;;;18.48;5.82;;;;;;;;;;5084990;28;20517;-72
2023/09/18 04:43:51;;;;;;;16.73;5.47;;;;;;;;;;5087981;28;20043;-72
2023/09/18 04:46:18;;;;;;;16.58;4.82;;;;;;;;;;5069008;28;20040;-72
2023/09/18 04:48:45;;;;;;;21.95;5.35;;;;;;;;;;5084341;28;20406;-72
2023/09/18 04:51:12;;;;;;;19.65;5.13;;;;;;;;;;5076969;28;20024;-72
2023/09/18 04:53:38;;;;;;;13.18;4.60;;;;;;;;;;5104982;28;20046;-71
2023/09/18 04:56:03;;;;;;;17.70;5.20;;;;;;;;;;5105599;28;20023;-71
2023/09/18 04:58:30;;;;;;;11.50;4.95;;;;;;;;;;5110248;28;20106;-71
2023/09/18 05:00:58;;;;;;;20.05;4.88;;;;;;;;;;5091706;28;20024;-70
2023/09/18 05:03:26;;;;;;;13.52;3.85;;;;;;;;;;5094121;28;20028;-69
2023/09/18 05:05:52;;;;;;;12.27;3.70;;;;;;;;;;5096381;28;20366;-70
2023/09/18 05:08:19;;;;;;;16.67;5.03;;;;;;;;;;5094758;28;20024;-70
2023/09/18 05:10:46;;;;;;;18.70;5.47;;;;;;;;;;5090332;28;20027;-70
2023/09/18 05:13:12;;;;;;;12.02;4.53;;;;;;;;;;5090508;28;20461;-71
2023/09/18 05:15:38;;;;;;;13.73;4.55;;;;;;;;;;5090150;28;20389;-70
2023/09/18 05:18:04;;;;;;;9.75;4.20;;;;;;;;;;5090260;28;20047;-70
2023/09/18 05:20:31;;;;;;;12.68;3.67;;;;;;;;;;5090144;28;20042;-71
2023/09/18 05:23:00;;;;;;;11.75;3.95;;;;;;;;;;5093356;28;20066;-70
2023/09/18 05:25:33;;;;;;;14.23;5.47;;;;;;;;;;5095742;28;20389;-69
2023/09/18 05:28:00;;;;;;;11.45;3.80;;;;;;;;;;5089309;28;20039;-70
2023/09/18 05:30:34;;;;;;;17.05;5.65;;;;;;;;;;5093721;28;20462;-70
2023/09/18 05:33:04;;;;;;;7.88;3.55;;;;;;;;;;5086373;28;20415;-71
2023/09/18 05:35:40;;;;;;;11.20;3.97;;;;;;;;;;5085511;28;20393;-71
2023/09/18 05:38:06;;;;;;;11.80;3.67;;;;;;;;;;5092357;28;20508;-71
2023/09/18 05:40:32;;;;;;;11.70;3.30;;;;;;;;;;5088916;28;20035;-71
2023/09/18 05:42:58;;;;;;;9.98;3.42;;;;;;;;;;5093119;28;20036;-71
2023/09/18 05:45:26;;;;;;;12.13;3.50;;;;;;;;;;5093466;28;20046;-70
2023/09/18 05:47:53;;;;;;;14.18;3.85;;;;;;;;;;5092874;28;20028;-70
2023/09/18 05:50:19;;;;;;;13.27;4.32;;;;;;;;;;5093159;28;20111;-71
2023/09/18 05:52:51;;;;;;;11.55;3.53;;;;;;;;;;5091298;28;20036;-69
2023/09/18 05:55:17;;;;;;;16.90;4.30;;;;;;;;;;5092826;28;20040;-70
2023/09/18 05:57:44;;;;;;;10.07;3.92;;;;;;;;;;5092802;28;20054;-70
2023/09/18 06:00:16;;;;;;;8.80;4.45;;;;;;;;;;5092717;28;20462;-71
2023/09/18 06:02:41;;;;;;;15.38;4.28;;;;;;;;;;5091334;28;20039;-71
2023/09/18 06:05:11;;;;;;;9.52;3.63;;;;;;;;;;5092766;28;20024;-71
2023/09/18 06:07:37;;;;;;;10.82;4.93;;;;;;;;;;5092016;28;20467;-72
2023/09/18 06:10:03;;;;;;;15.77;4.95;;;;;;;;;;5091005;28;20023;-72
2023/09/18 06:12:29;;;;;;;12.50;4.85;;;;;;;;;;5091921;28;20066;-73
2023/09/18 06:14:55;;;;;;;14.00;5.40;;;;;;;;;;5093107;28;20032;-72
2023/09/18 06:17:21;;;;;;;16.80;5.72;;;;;;;;;;5090369;28;20127;-71
2023/09/18 06:19:47;;;;;;;16.00;4.72;;;;;;;;;;5091969;28;20077;-73
2023/09/18 06:22:14;;;;;;;16.27;4.68;;;;;;;;;;5092172;28;20040;-70
2023/09/18 06:24:39;;;;;;;14.40;4.60;;;;;;;;;;5091907;28;20027;-70
2023/09/18 06:27:05;;;;;;;20.88;6.53;;;;;;;;;;5089630;28;20044;-70
2023/09/18 06:29:32;;;;;;;11.50;5.40;;;;;;;;;;5092278;28;20019;-69
2023/09/18 06:31:58;;;;;;;11.13;4.80;;;;;;;;;;5085273;28;20166;-71
2023/09/18 06:34:24;;;;;;;12.52;4.93;;;;;;;;;;5094995;28;20066;-71
2023/09/18 06:36:50;;;;;;;13.57;4.80;;;;;;;;;;5092456;28;20131;-70
2023/09/18 06:39:16;;;;;;;10.13;4.45;;;;;;;;;;5090661;28;20525;-69
2023/09/18 06:41:42;;;;;;;7.90;3.58;;;;;;;;;;5089916;28;20035;-70
2023/09/18 06:44:11;;;;;;;9.63;3.47;;;;;;;;;;5090625;28;20473;-70
2023/09/18 06:46:37;;;;;;;13.15;3.30;;;;;;;;;;5090360;28;20039;-70
2023/09/18 06:49:03;;;;;;;16.02;4.22;;;;;;;;;;5091257;28;20103;-71
2023/09/18 06:51:29;;;;;;;14.63;4.60;;;;;;;;;;5091455;28;20028;-69
2023/09/18 06:53:57;;;;;;;14.23;5.07;;;;;;;;;;5092708;28;20035;-71
2023/09/18 06:56:24;;;;;;;15.25;4.88;;;;;;;;;;5092008;28;20052;-70
2023/09/18 06:58:51;;;;;;;13.40;4.93;;;;;;;;;;5092175;28;20026;-70
2023/09/18 07:01:19;;;;;;;13.52;4.72;;;;;;;;;;5090745;28;20042;-70
2023/09/18 07:03:46;;;;;;;10.45;3.97;;;;;;;;;;5091376;28;20024;-71
2023/09/18 07:06:15;;;;;;;21.02;5.35;;;;;;;;;;5089615;28;20035;-70
2023/09/18 07:08:43;;;;;;;10.90;4.25;;;;;;;;;;5088772;28;20099;-70
2023/09/18 07:11:09;;;;;;;13.60;4.78;;;;;;;;;;5089755;28;20156;-69
2023/09/18 07:13:34;;;;;;;11.48;3.88;;;;;;;;;;5089390;28;20124;-70
2023/09/18 07:16:00;;;;;;;10.50;3.72;;;;;;;;;;5089286;28;20114;-71
2023/09/18 07:18:26;;;;;;;10.10;3.53;;;;;;;;;;5089867;28;20052;-72
2023/09/18 07:20:52;;;;;;;8.15;2.95;;;;;;;;;;5090299;28;20039;-69
2023/09/18 07:23:18;;;;;;;11.50;3.30;;;;;;;;;;5090913;28;20022;-70
2023/09/18 07:25:44;;;;;;;16.38;7.80;;;;;;;;;;5088435;28;20101;-71
2023/09/18 07:28:15;;;;;;;10.07;3.60;;;;;;;;;;5091471;28;20434;-69
2023/09/18 07:30:42;;;;;;;10.30;3.15;;;;;;;;;;5091569;28;20087;-70
2023/09/18 07:33:07;;;;;;;8.40;3.22;;;;;;;;;;5092160;28;20027;-71
2023/09/18 07:35:33;;;;;;;10.07;3.50;;;;;;;;;;5091070;28;20040;-71
2023/09/18 07:37:59;;;;;;;11.60;3.45;;;;;;;;;;5090991;28;20024;-70
2023/09/18 07:40:24;;;;;;;7.65;2.97;;;;;;;;;;5091311;28;20370;-70
2023/09/18 07:42:50;;;;;;;11.82;4.13;;;;;;;;;;5091695;28;20018;-71
2023/09/18 07:45:17;;;;;;;6.75;2.90;;;;;;;;;;5090211;28;20051;-72
2023/09/18 07:47:43;;;;;;;8.73;3.40;;;;;;;;;;5090769;28;20024;-73
2023/09/18 07:50:09;;;;;;;7.88;3.75;;;;;;;;;;5091022;28;20457;-73
2023/09/18 07:52:36;;;;;;;8.35;3.00;;;;;;;;;;5091223;28;20169;-72
2023/09/18 07:55:03;;;;;;;6.38;3.42;;;;;;;;;;5090946;28;20482;-71
2023/09/18 07:57:30;;;;;;;8.63;3.97;;;;;;;;;;5091758;28;20020;-74
2023/09/18 07:59:56;;;;;;;6.28;3.42;;;;;;;;;;5082979;28;20040;-72
2023/09/18 08:02:22;;;;;;;5.57;3.15;;;;;;;;;;5091383;28;20023;-72
2023/09/18 08:04:48;;;;;;;6.60;3.40;;;;;;;;;;5091148;28;20466;-72
2023/09/18 08:07:14;;;;;;;8.25;3.17;;;;;;;;;;5091230;28;20111;-72
2023/09/18 08:09:40;;;;;;;8.75;4.00;;;;;;;;;;5091010;28;20028;-72
2023/09/18 08:12:08;;;;;;;6.55;3.00;;;;;;;;;;5090791;28;20031;-74
2023/09/18 08:14:37;;;;;;;12.98;4.05;;;;;;;;;;5091308;28;20047;-72
2023/09/18 08:17:04;;;;;;;10.00;3.00;;;;;;;;;;5091035;28;20032;-73
2023/09/18 08:19:35;;;;;;;9.45;2.95;;;;;;;;;;5091075;28;20517;-73
2023/09/18 08:22:01;;;;;;;7.38;3.00;;;;;;;;;;5091091;28;20386;-73
2023/09/18 08:24:27;;;;;;;9.15;2.75;;;;;;;;;;5092217;28;20027;-72
2023/09/18 08:26:54;;;;;;;9.82;3.25;;;;;;;;;;5089892;28;20053;-71
2023/09/18 08:29:19;;;;;;;8.80;3.10;;;;;;;;;;5091101;28;20091;-72
2023/09/18 08:31:45;;;;;;;11.18;3.53;;;;;;;;;;5090138;28;20208;-71
2023/09/18 08:34:11;;;;;;;9.60;3.15;;;;;;;;;;5090813;28;20449;-72
2023/09/18 08:36:37;;;;;;;6.45;3.20;;;;;;;;;;5090993;28;20039;-72
2023/09/18 08:39:05;;;;;;;14.07;3.92;;;;;;;;;;5089131;28;20048;-74
2023/09/18 08:41:32;;;;;;;7.40;3.20;;;;;;;;;;5090430;28;20032;-71
2023/09/18 08:44:03;;;;;;;6.25;3.20;;;;;;;;;;5090434;28;20050;-72
2023/09/18 08:46:30;;;;;;;9.02;3.45;;;;;;;;;;5090500;28;20085;-73
2023/09/18 08:48:57;;;;;;;8.90;3.60;;;;;;;;;;5090287;28;20119;-73
2023/09/18 08:51:23;;;;;;;9.00;3.63;;;;;;;;;;5090352;28;20519;-72
2023/09/18 08:53:49;;;;;;;10.88;3.45;;;;;;;;;;5090757;28;20114;-72
2023/09/18 08:56:17;;;;;;;12.23;3.28;;;;;;;;;;5089386;28;20060;-74
2023/09/18 08:58:43;;;;;;;6.65;3.33;;;;;;;;;;5092591;28;20024;-71
2023/09/18 09:01:10;;;;;;;8.80;3.60;;;;;;;;;;5094455;28;20063;-71
2023/09/18 09:03:42;;;;;;;7.03;3.20;;;;;;;;;;5094516;28;20036;-71
2023/09/18 09:06:09;;;;;;;9.35;3.58;;;;;;;;;;5094092;28;20043;-71
2023/09/18 09:08:36;;;;;;;12.27;3.80;;;;;;;;;;5093862;28;20024;-69
2023/09/18 09:11:03;;;;;;;7.95;2.95;;;;;;;;;;5093440;28;20490;-70
2023/09/18 09:13:29;;;;;;;8.55;3.22;;;;;;;;;;5093901;28;20032;-70
2023/09/18 09:15:57;;;;;;;7.05;3.38;;;;;;;;;;5093795;28;20028;-70
2023/09/18 09:18:24;;;;;;;8.68;3.58;;;;;;;;;;5093364;28;20028;-70
2023/09/18 09:20:57;;;;;;;8.43;3.40;;;;;;;;;;5093508;28;20032;-71
2023/09/18 09:23:25;;;;;;;11.15;3.85;;;;;;;;;;5093668;28;20406;-71
2023/09/18 09:25:50;;;;;;;8.50;3.50;;;;;;;;;;5092386;28;20118;-70
2023/09/18 09:28:29;;;;;;;7.68;3.30;;;;;;;;;;5093095;28;20367;-71
2023/09/18 09:31:03;;;;;;;9.43;3.50;;;;;;;;;;5093209;28;20136;-70
2023/09/18 09:33:30;;;;;;;11.23;3.30;;;;;;;;;;5093570;28;20024;-70
2023/09/18 09:35:57;;;;;;;6.78;4.13;;;;;;;;;;5093544;28;20024;-71
2023/09/18 09:38:33;;;;;;;6.50;3.35;;;;;;;;;;5093372;28;20043;-71
2023/09/18 09:41:00;;;;;;;10.95;4.15;;;;;;;;;;5094319;28;20401;-71
2023/09/18 09:43:29;;;;;;;7.22;3.60;;;;;;;;;;5094408;28;20020;-71
2023/09/18 09:45:59;;;;;;;8.25;3.80;;;;;;;;;;5109599;28;20040;-69
2023/09/18 09:48:30;;;;;;;9.60;3.53;;;;;;;;;;5093729;28;20039;-70
2023/09/18 09:51:00;;;;;;;7.60;3.88;;;;;;;;;;5093812;28;20108;-71
2023/09/18 09:53:51;;;;;;;9.13;3.13;;;;;;;;;;5092390;28;20378;-71
2023/09/18 09:56:21;;;;;;;8.55;3.20;;;;;;;;;;5093805;28;20034;-71
2023/09/18 09:59:02;;;;;;;8.63;3.47;;;;;;;;;;5093500;28;20039;-71
2023/09/18 10:01:30;;;;;;;8.10;3.20;;;;;;;;;;5093369;28;20040;-71
2023/09/18 10:03:57;;;;;;;9.23;3.53;;;;;;;;;;5093647;28;20032;-71
2023/09/18 10:06:23;;;;;;;11.52;3.50;;;;;;;;;;5093343;28;20501;-71
2023/09/18 10:08:49;;;;;;;11.80;4.03;;;;;;;;;;5092777;28;20027;-71
2023/09/18 10:11:16;;;;;;;10.52;4.00;;;;;;;;;;5092542;28;20031;-71
2023/09/18 10:13:56;;;;;;;5.03;3.20;;;;;;;;;;5091392;28;20016;-70
2023/09/18 10:16:28;;;;;;;7.28;3.70;;;;;;;;;;5092781;28;20042;-71
2023/09/18 10:19:00;;;;;;;9.23;3.50;;;;;;;;;;5092899;28;20505;-70
2023/09/18 10:21:37;;;;;;;7.80;3.67;;;;;;;;;;5092829;28;20126;-70
2023/09/18 10:24:16;;;;;;;8.63;3.35;;;;;;;;;;5092632;28;20032;-72
2023/09/18 10:27:00;;;;;;;6.97;3.60;;;;;;;;;;5107998;28;20111;-70
2023/09/18 10:29:28;;;;;;;6.53;3.92;;;;;;;;;;5084015;28;20123;-70
2023/09/18 10:31:54;;;;;;;10.35;3.80;;;;;;;;;;5091634;28;20024;-71
2023/09/18 10:34:23;;;;;;;8.38;3.30;;;;;;;;;;5091937;28;20044;-69
2023/09/18 10:36:52;;;;;;;10.15;4.18;;;;;;;;;;5092097;28;20046;-70
2023/09/18 10:39:26;;;;;;;6.38;3.47;;;;;;;;;;5092015;28;20060;-71
2023/09/18 10:41:55;;;;;;;8.85;3.42;;;;;;;;;;5092276;28;20031;-70
2023/09/18 10:44:22;;;;;;;12.13;3.85;;;;;;;;;;5092123;28;20408;-70
2023/09/18 10:46:49;;;;;;;9.18;3.70;;;;;;;;;;5091905;28;20499;-69
2023/09/18 10:49:19;;;;;;;7.18;3.85;;;;;;;;;;5092259;28;20385;-70
2023/09/18 10:51:48;;;;;;;10.57;3.90;;;;;;;;;;5091373;28;20036;-69
2023/09/18 10:54:21;;;;;;;5.97;3.70;;;;;;;;;;5091707;28;20118;-70
2023/09/18 10:56:47;;;;;;;11.45;3.70;;;;;;;;;;5092574;28;20040;-70
2023/09/18 10:59:15;;;;;;;7.00;3.90;;;;;;;;;;5092453;28;20115;-70
2023/09/18 11:01:42;;;;;;;11.15;3.70;;;;;;;;;;5091993;28;20040;-69
2023/09/18 11:04:10;;;;;;;8.65;3.50;;;;;;;;;;5091048;28;20043;-69
2023/09/18 11:06:54;;;;;;;8.43;3.97;;;;;;;;;;5091731;28;20058;-68
2023/09/18 11:09:25;;;;;;;14.43;3.92;;;;;;;;;;5091678;28;20032;-69
2023/09/18 11:12:03;;;;;;;7.85;3.40;;;;;;;;;;5091528;28;20032;-69
2023/09/18 11:14:46;;;;;;;9.93;4.30;;;;;;;;;;5090784;28;20024;-70
2023/09/18 11:17:42;;;;;;;9.02;3.60;;;;;;;;;;5091869;28;20040;-71
2023/09/18 11:20:20;;;;;;;9.18;3.75;;;;;;;;;;5092776;28;20529;-71
2023/09/18 11:23:16;;;;;;;14.02;3.95;;;;;;;;;;5090893;28;20050;-69
2023/09/18 11:25:47;;;;;;;6.38;3.33;;;;;;;;;;5090422;28;20039;-70
2023/09/18 11:28:17;;;;;;;11.38;4.75;;;;;;;;;;5090677;28;20033;-70
2023/09/18 11:30:50;;;;;;;8.35;4.10;;;;;;;;;;5091479;28;20040;-70
2023/09/18 11:33:30;;;;;;;9.40;4.78;;;;;;;;;;5091211;28;20438;-71
2023/09/18 11:35:56;;;;;;;7.65;3.65;;;;;;;;;;5091389;28;20082;-70
2023/09/18 11:38:25;;;;;;;5.75;3.60;;;;;;;;;;5091970;28;20019;-72
2023/09/18 11:40:51;;;;;;;8.88;3.50;;;;;;;;;;5091813;28;20032;-69
2023/09/18 11:43:31;;;;;;;7.38;3.67;;;;;;;;;;5090417;28;20024;-69
2023/09/18 11:45:59;;;;;;;10.18;3.92;;;;;;;;;;5091486;28;20048;-71
2023/09/18 11:48:29;;;;;;;5.75;3.55;;;;;;;;;;5091600;28;20024;-69
2023/09/18 11:51:00;;;;;;;6.65;3.40;;;;;;;;;;5091271;28;20043;-69
2023/09/18 11:53:28;;;;;;;6.30;3.85;;;;;;;;;;5091895;28;20173;-71
2023/09/18 11:55:54;;;;;;;8.18;3.90;;;;;;;;;;5091705;28;20028;-70
2023/09/18 11:58:23;;;;;;;7.63;4.25;;;;;;;;;;5091678;28;20067;-70
2023/09/18 12:00:54;;;;;;;9.52;4.13;;;;;;;;;;5090303;28;20031;-69
2023/09/18 12:03:31;;;;;;;9.13;5.68;;;;;;;;;;5091859;28;20092;-69
2023/09/18 12:06:02;;;;;;;9.32;4.50;;;;;;;;;;5091804;28;20031;-70
2023/09/18 12:08:31;;;;;;;8.05;4.38;;;;;;;;;;5091658;28;20028;-70
2023/09/18 12:10:58;;;;;;;7.63;3.88;;;;;;;;;;5091175;28;20608;-69
2023/09/18 12:13:27;;;;;;;8.30;4.10;;;;;;;;;;5091850;28;20063;-71
2023/09/18 12:16:06;;;;;;;6.03;3.67;;;;;;;;;;5091404;28;20107;-71
2023/09/18 12:18:37;;;;;;;9.40;4.65;;;;;;;;;;5091379;28;20036;-71
2023/09/18 12:21:06;;;;;;;8.75;4.10;;;;;;;;;;5090928;28;20040;-69
2023/09/18 12:23:39;;;;;;;12.10;4.20;;;;;;;;;;5091521;28;20024;-72
2023/09/18 12:26:06;;;;;;;8.80;4.78;;;;;;;;;;5093623;28;20509;-71
2023/09/18 12:28:35;;;;;;;6.20;3.45;;;;;;;;;;5091251;28;20067;-71
2023/09/18 12:31:05;;;;;;;7.25;4.60;;;;;;;;;;5091400;28;20063;-71
2023/09/18 12:33:37;;;;;;;9.65;4.53;;;;;;;;;;5092844;28;20031;-71
2023/09/18 12:36:04;;;;;;;8.85;3.88;;;;;;;;;;5095645;28;20113;-71
2023/09/18 12:38:31;;;;;;;8.20;4.43;;;;;;;;;;5095259;28;20077;-71
2023/09/18 12:41:05;;;;;;;8.23;3.97;;;;;;;;;;5094516;28;20085;-71
2023/09/18 12:43:39;;;;;;;8.35;4.32;;;;;;;;;;5094914;28;20539;-70
2023/09/18 12:46:06;;;;;;;6.32;4.13;;;;;;;;;;5095176;28;20547;-70
2023/09/18 12:48:37;;;;;;;9.88;4.05;;;;;;;;;;5095191;28;20028;-70
2023/09/18 12:51:06;;;;;;;7.05;4.53;;;;;;;;;;5095027;28;20546;-70
2023/09/18 12:53:33;;;;;;;8.20;3.85;;;;;;;;;;5095532;28;20020;-70
2023/09/18 12:56:06;;;;;;;8.98;3.90;;;;;;;;;;5095278;28;20437;-69
2023/09/18 12:58:31;;;;;;;10.20;4.53;;;;;;;;;;5095316;28;20378;-71
2023/09/18 13:00:57;;;;;;;7.90;4.40;;;;;;;;;;5094781;28;20085;-71
2023/09/18 13:03:23;;;;;;;12.25;4.18;;;;;;;;;;5095156;28;20032;-71
2023/09/18 13:05:52;;;;;;;8.13;3.97;;;;;;;;;;5094991;28;20511;-70
2023/09/18 13:08:21;;;;;;;9.73;4.13;;;;;;;;;;5094127;28;20039;-70
2023/09/18 13:10:52;;;;;;;8.80;3.80;;;;;;;;;;5094496;28;20137;-71
2023/09/18 13:13:25;;;;;;;8.65;4.25;;;;;;;;;;5094508;28;20157;-70
2023/09/18 13:15:51;;;;;;;;;;;;;;;;;;5095032;28;20512;-71
2023/09/18 13:18:19;;;;;;;14.27;4.00;;;;;;;;;;5108974;28;19908;-71
2023/09/18 13:20:45;;;;;;;10.30;4.28;;;;;;;;;;5094517;28;20040;-70
2023/09/18 13:23:10;;;;;;;10.35;3.88;;;;;;;;;;5094829;28;20016;-70
2023/09/18 13:25:40;;;;;;;8.13;4.35;;;;;;;;;;5094614;28;20038;-70
2023/09/18 13:28:08;;;;;;;7.10;4.20;;;;;;;;;;5094791;28;20035;-70
2023/09/18 13:30:39;;;;;;;8.88;4.20;;;;;;;;;;5094598;28;20024;-71
2023/09/18 13:33:07;;;;;;;9.48;4.40;;;;;;;;;;5094877;28;20054;-70
2023/09/18 13:35:35;;;;;;;9.60;4.50;;;;;;;;;;5094818;28;20023;-71
2023/09/18 13:38:02;;;;;;;10.82;4.28;;;;;;;;;;5094507;28;20032;-70
2023/09/18 13:40:29;;;;;;;9.77;4.10;;;;;;;;;;5089729;28;20100;-70
2023/09/18 13:42:55;;;;;;;10.95;4.15;;;;;;;;;;5092209;28;20093;-70
2023/09/18 13:45:21;;;;;;;10.85;4.25;;;;;;;;;;5090674;28;20027;-70
2023/09/18 13:47:49;;;;;;;6.82;3.70;;;;;;;;;;5092233;28;20028;-70
2023/09/18 13:50:15;;;;;;;11.98;4.38;;;;;;;;;;5090433;28;20107;-70
2023/09/18 13:52:41;;;;;;;8.68;4.57;;;;;;;;;;5089752;28;20128;-70
2023/09/18 13:55:08;;;;;;;8.57;4.53;;;;;;;;;;5092103;28;20059;-70
2023/09/18 13:57:35;;;;;;;6.97;4.72;;;;;;;;;;5093411;28;20122;-69
2023/09/18 14:00:04;;;;;;;8.45;4.53;;;;;;;;;;5093160;28;20111;-69
2023/09/18 14:02:38;;;;;;;6.38;3.92;;;;;;;;;;5092796;28;20060;-70
2023/09/18 14:05:06;;;;;;;10.23;4.35;;;;;;;;;;5093432;28;20178;-69
2023/09/18 14:07:31;;;;;;;10.50;5.10;;;;;;;;;;5092891;28;20028;-69
2023/09/18 14:09:58;;;;;;;8.65;4.60;;;;;;;;;;5093016;28;20032;-68
2023/09/18 14:12:24;;;;;;;7.20;4.30;;;;;;;;;;5090922;28;20545;-69
2023/09/18 14:14:50;;;;;;;6.55;4.40;;;;;;;;;;5092609;28;20497;-69
2023/09/18 14:17:17;;;;;;;11.80;4.85;;;;;;;;;;5084665;28;20071;-69
2023/09/18 14:19:44;;;;;;;6.10;4.45;;;;;;;;;;5092638;28;20485;-70
2023/09/18 14:22:09;;;;;;;8.60;4.40;;;;;;;;;;5091183;28;20032;-70
2023/09/18 14:24:35;;;;;;;12.23;5.22;;;;;;;;;;5078641;28;20062;-69
2023/09/18 14:27:02;;;;;;;11.95;5.05;;;;;;;;;;5071043;28;20032;-69
2023/09/18 14:29:30;;;;;;;7.22;4.47;;;;;;;;;;5075476;28;20066;-69
2023/09/18 14:31:57;;;;;;;11.05;4.72;;;;;;;;;;5092764;28;20028;-70
2023/09/18 14:34:22;;;;;;;12.30;4.65;;;;;;;;;;5092841;28;20035;-69
2023/09/18 14:36:48;;;;;;;10.45;5.05;;;;;;;;;;5092864;28;20110;-69
2023/09/18 14:39:14;;;;;;;8.50;5.20;;;;;;;;;;5091396;28;20043;-69
2023/09/18 14:41:40;;;;;;;9.38;4.82;;;;;;;;;;5092570;28;20035;-69